Warning: fopen(/var/www/metroair/shared/private/wxdata/metar/AVWX/metar_KWRI): failed to open stream: Permission denied in /var/www/metroair/shared/private/library/orig_library/lib_airport.php on line 346

Warning: fwrite() expects parameter 1 to be resource, boolean given in /var/www/metroair/shared/private/library/orig_library/lib_airport.php on line 347

Warning: fclose() expects parameter 1 to be resource, boolean given in /var/www/metroair/shared/private/library/orig_library/lib_airport.php on line 348

Warning: fopen(/var/www/metroair/shared/private/wxdata/TAF/AVWX/taf_KWRI): failed to open stream: Permission denied in /var/www/metroair/shared/private/library/orig_library/lib_airport.php on line 533

Warning: fwrite() expects parameter 1 to be resource, boolean given in /var/www/metroair/shared/private/library/orig_library/lib_airport.php on line 534

Warning: fclose() expects parameter 1 to be resource, boolean given in /var/www/metroair/shared/private/library/orig_library/lib_airport.php on line 535

MET8601 - McGuire AFB to Boston

Boeing 757-200W
773MU - Charter
0 hrs 55 mins
215 nm
Ferry - M | W | F

Departure

Departing from
McGuire AFB (WRI)
Departure gate
Ramp
Scheduled Departure
GMT 0500
Local 0000
METAR KWRI 260458Z AUTO 30011G19KT 10SM SCT140 07/00 A2968 RMK AO2 PK WND 31031/03 SLP050 T00741002 402260074
TAF TAF KWRI 260205Z 2602/2708 30012KT 9999 SCT030 BKN070 QNH2961INS TEMPO 2602/2608 30015G25KT BECMG 2607/2608 29015G25KT 9999 FEW070 QNH2983INS BECMG 2620/2621 29012G18KT 9999 SKC QNH3015INS BECMG 2622/2623 27009KT 9999 SKC QNH3021INS TX08/2602Z TN01/2610Z
  • No charts available

Arrival

Arriving at
Boston (BOS)
Arrival gate
Scheduled Arrival
GMT 0555
Local 0055
METAR KBOS 260454Z 30014G21KT 10SM FEW015 SCT026 OVC040 09/07 A2947 RMK AO2 RAE44 SLP979 P0003 T00940067 402060094
TAF KBOS 260051Z 2601/2706 17007KT 3SM BR VCSH BKN007 OVC014 FM260300 24010G20KT 3SM -SHRA OVC015 FM260500 28012G26KT P6SM VCSH BKN045 FM260600 29013G27KT P6SM BKN040 FM260700 29014G28KT P6SM SCT060 FM270300 26008KT P6SM SKC

Route Map

Planning Resources

PTPL5 SHLEP HTO ORW7
RBV HFD PUT KBOS
Route:
OFP Layout:
Units:
Detailed Navlog:
ETOPS Planning:
Plan Stepclimbs:
Runway Analysis:
Include NOTAMS:
FIR NOTAMS:
Flight Maps:

Return Flights

MET8600
Boeing 757-200W
1600 GMT

Popularity

Hub Current Bids PiReps this month Total PiReps
KMCI 0 0 1
KLAX 0 0 1
KBOS 0 0 1